Weather at Bartica A Airport

Public forecast

Using degrees Celsius for public forecast. Weather courtesy of forecast.io.

Closest aviation weather report (METAR) to Bartica A Airport

Closest report is Cheddi Jagan International Airport, 25.4 nm (47.0 km) ENE. Retrieved 2020/10/24 05:00 UTC (45 minutes ago):

SYCJ 240500Z VRB02KT 9999 FEW016 25/24 Q1011 NOSIG

Closest aviation forecast (TAF) to Bartica A Airport

Closest forecast is Cheddi Jagan International Airport, 25.4 nm (47.0 km) ENE. Retrieved 2020-10-24 00:03 UTC (6 hours ago):

TAF TAF SYCJ 232300Z 2400/2424 05006KT 9999 FEW016 PROB40 TEMPO 2407/2411 0900 FG FEW008 BECMG 2412/2415 06012KT 9999 FEW018CB SCT020